createdAt,value
2023-04-26T00:02:04.652Z,19.50
2023-04-26T00:04:56.267Z,18.93
2023-04-26T00:07:45.135Z,13.40
2023-04-26T00:10:33.636Z,11.50
2023-04-26T00:13:22.069Z,10.50
2023-04-26T00:16:11.969Z,11.13
2023-04-26T00:19:01.202Z,13.00
2023-04-26T00:21:49.660Z,12.30
2023-04-26T00:24:38.185Z,13.40
2023-04-26T00:27:26.819Z,13.10
2023-04-26T00:30:16.099Z,12.57
2023-04-26T00:33:06.336Z,14.13
2023-04-26T00:35:54.798Z,14.80
2023-04-26T00:38:43.352Z,14.40
2023-04-26T00:41:32.472Z,16.17
2023-04-26T00:44:20.873Z,16.17
2023-04-26T00:47:09.572Z,13.27
2023-04-26T00:49:59.389Z,14.67
2023-04-26T00:52:48.483Z,22.33
2023-04-26T00:55:37.215Z,15.17
2023-04-26T00:58:26.475Z,14.93
2023-04-26T01:01:15.027Z,15.73
2023-04-26T01:04:03.836Z,15.00
2023-04-26T01:06:53.836Z,16.67
2023-04-26T01:09:43.044Z,14.33
2023-04-26T01:12:31.502Z,15.13
2023-04-26T01:15:20.027Z,12.70
2023-04-26T01:18:08.514Z,12.53
2023-04-26T01:20:57.665Z,11.93
2023-04-26T01:23:47.497Z,14.30
2023-04-26T01:26:36.298Z,15.53
2023-04-26T01:29:25.036Z,14.80
2023-04-26T01:32:13.554Z,17.43
2023-04-26T01:35:02.164Z,16.20
2023-04-26T01:37:50.611Z,18.27
2023-04-26T01:40:43.643Z,15.77
2023-04-26T01:43:32.254Z,19.77
2023-04-26T01:46:20.879Z,17.20
2023-04-26T01:49:09.407Z,16.60
2023-04-26T01:51:57.919Z,18.20
2023-04-26T01:54:46.398Z,19.40
2023-04-26T01:57:36.300Z,17.37
2023-04-26T02:00:24.772Z,17.07
2023-04-26T02:03:13.377Z,17.60
2023-04-26T02:06:01.871Z,18.17
2023-04-26T02:08:50.468Z,17.97
2023-04-26T02:11:38.956Z,18.20
2023-04-26T02:14:28.795Z,21.50
2023-04-26T02:17:17.328Z,35.23
2023-04-26T02:20:07.221Z,28.63
2023-04-26T02:22:55.668Z,29.03
2023-04-26T02:25:46.863Z,27.47
2023-04-26T02:28:35.372Z,27.03
2023-04-26T02:31:25.346Z,31.10
2023-04-26T02:34:13.892Z,30.23
2023-04-26T02:37:02.577Z,20.67
2023-04-26T02:39:51.314Z,24.20
2023-04-26T02:42:40.063Z,25.30
2023-04-26T02:45:28.554Z,24.27
2023-04-26T02:48:18.364Z,22.23
2023-04-26T02:51:07.405Z,25.37
2023-04-26T02:53:55.892Z,23.20
2023-04-26T02:56:44.310Z,26.10
2023-04-26T02:59:32.810Z,21.60
2023-04-26T03:02:21.649Z,30.70
2023-04-26T03:05:11.648Z,31.33
2023-04-26T03:08:00.166Z,25.13
2023-04-26T03:10:48.629Z,28.90
2023-04-26T03:13:37.469Z,34.37
2023-04-26T03:16:26.010Z,27.30
2023-04-26T03:19:14.638Z,28.47
2023-04-26T03:22:04.487Z,24.53
2023-04-26T03:24:52.940Z,30.90
2023-04-26T03:27:41.388Z,22.10
2023-04-26T03:30:29.909Z,27.60
2023-04-26T03:33:18.415Z,23.27
2023-04-26T03:36:07.428Z,48.63
2023-04-26T03:38:57.250Z,37.93
2023-04-26T03:41:46.082Z,31.37
2023-04-26T03:44:34.554Z,59.50
2023-04-26T03:47:23.068Z,34.57
2023-04-26T03:50:12.106Z,56.97
2023-04-26T03:53:00.548Z,42.87
2023-04-26T03:55:50.641Z,43.17
2023-04-26T03:58:39.159Z,79.03
2023-04-26T04:01:27.716Z,48.93
2023-04-26T04:04:16.572Z,89.97
2023-04-26T04:07:05.774Z,73.83
2023-04-26T04:09:54.238Z,58.53
2023-04-26T04:12:44.088Z,55.77
2023-04-26T04:15:32.695Z,39.00
2023-04-26T04:18:21.236Z,50.73
2023-04-26T04:21:09.759Z,23.57
2023-04-26T04:23:58.281Z,20.57
2023-04-26T04:26:47.246Z,25.60
2023-04-26T04:29:37.130Z,23.70
2023-04-26T04:32:25.762Z,28.07
2023-04-26T04:35:14.450Z,23.60
2023-04-26T04:38:03.112Z,24.70
2023-04-26T04:40:52.238Z,32.03
2023-04-26T04:43:40.757Z,49.37
2023-04-26T04:46:30.760Z,21.60
2023-04-26T04:49:19.689Z,22.47
2023-04-26T04:52:08.209Z,40.60
2023-04-26T04:54:56.691Z,51.63
2023-04-26T04:57:45.216Z,27.53
2023-04-26T05:00:33.972Z,40.40
2023-04-26T05:03:23.993Z,28.10
2023-04-26T05:06:12.544Z,22.13
2023-04-26T05:09:01.469Z,31.77
2023-04-26T05:11:49.998Z,20.03
2023-04-26T05:14:38.483Z,36.23
2023-04-26T05:17:26.960Z,40.23
2023-04-26T05:20:16.934Z,29.70
2023-04-26T05:23:05.566Z,23.83
2023-04-26T05:25:53.991Z,42.43
2023-04-26T05:28:42.528Z,34.70
2023-04-26T05:31:31.487Z,30.67
2023-04-26T05:34:20.063Z,28.67
2023-04-26T05:37:09.865Z,39.40
2023-04-26T05:39:58.524Z,37.53
2023-04-26T05:42:47.179Z,23.87
2023-04-26T05:45:35.769Z,23.47
2023-04-26T05:48:25.516Z,21.67
2023-04-26T05:51:14.036Z,23.70
2023-04-26T05:54:05.146Z,31.03
2023-04-26T05:56:53.644Z,30.27
2023-04-26T05:59:42.104Z,27.23
2023-04-26T06:02:30.730Z,24.00
2023-04-26T06:05:19.732Z,26.00
2023-04-26T06:08:08.697Z,30.00
2023-04-26T06:10:58.523Z,30.27
2023-04-26T06:13:47.314Z,29.63
2023-04-26T06:16:35.969Z,22.63
2023-04-26T06:19:24.573Z,23.67
2023-04-26T06:22:13.072Z,27.43
2023-04-26T06:25:01.754Z,29.17
2023-04-26T06:27:51.963Z,25.47
2023-04-26T06:30:40.507Z,24.73
2023-04-26T06:33:29.267Z,34.07
2023-04-26T06:36:17.740Z,29.07
2023-04-26T06:39:06.289Z,23.27
2023-04-26T06:41:54.777Z,22.33
2023-04-26T06:44:44.657Z,20.87
2023-04-26T06:47:33.159Z,23.20
2023-04-26T06:50:21.904Z,21.17
2023-04-26T06:53:10.445Z,19.63
2023-04-26T06:55:58.924Z,19.50
2023-04-26T06:59:00.421Z,19.03
2023-04-26T07:01:50.406Z,18.93
2023-04-26T07:04:39.223Z,14.53
2023-04-26T07:07:27.846Z,17.23
2023-04-26T07:10:16.321Z,19.10
2023-04-26T07:13:05.523Z,14.10
2023-04-26T07:15:55.258Z,16.43
2023-04-26T07:18:45.297Z,17.90
2023-04-26T07:21:33.959Z,14.77
2023-04-26T07:24:22.468Z,17.37
2023-04-26T07:27:11.137Z,14.30
2023-04-26T07:29:59.669Z,15.53
2023-04-26T07:32:48.213Z,16.10
2023-04-26T07:35:38.110Z,13.53
2023-04-26T07:38:26.768Z,15.53
2023-04-26T07:41:16.417Z,13.27
2023-04-26T07:44:05.332Z,9.60
2023-04-26T07:46:53.969Z,15.50
2023-04-26T07:49:42.686Z,12.33
2023-04-26T07:52:32.628Z,9.23
2023-04-26T07:55:21.710Z,8.77
2023-04-26T07:58:14.450Z,12.33
2023-04-26T08:01:03.716Z,12.00
2023-04-26T08:03:52.724Z,11.60
2023-04-26T08:06:45.005Z,10.13
2023-04-26T08:09:34.883Z,13.47
2023-04-26T08:12:23.412Z,9.03
2023-04-26T08:15:13.379Z,11.37
2023-04-26T08:18:01.938Z,10.63
2023-04-26T08:20:50.528Z,9.50
2023-04-26T08:23:39.317Z,14.87
2023-04-26T08:26:29.249Z,8.87
2023-04-26T08:29:18.673Z,12.77
2023-04-26T08:32:07.212Z,9.83
2023-04-26T08:34:55.794Z,8.50
2023-04-26T08:37:44.286Z,9.50
2023-04-26T08:40:33.444Z,11.50
2023-04-26T08:43:23.276Z,8.70
2023-04-26T08:46:16.332Z,13.93
2023-04-26T08:49:13.035Z,9.53
2023-04-26T08:52:02.077Z,8.47
2023-04-26T08:54:51.446Z,40.83
2023-04-26T08:57:41.454Z,8.87
2023-04-26T09:00:31.783Z,5.30
2023-04-26T09:03:21.059Z,7.03
2023-04-26T09:06:09.902Z,6.37
2023-04-26T09:08:59.092Z,8.13
2023-04-26T09:11:55.617Z,7.83
2023-04-26T09:14:44.137Z,7.67
2023-04-26T09:17:36.614Z,9.17
2023-04-26T09:20:28.104Z,7.93
2023-04-26T09:23:17.083Z,6.70
2023-04-26T09:26:22.338Z,7.23
2023-04-26T09:29:15.651Z,5.00
2023-04-26T09:32:04.478Z,5.77
2023-04-26T09:34:54.349Z,4.90
2023-04-26T09:37:59.365Z,7.37
2023-04-26T09:40:51.793Z,6.43
2023-04-26T09:43:40.521Z,10.23
2023-04-26T09:46:29.053Z,4.67
2023-04-26T09:49:17.618Z,4.90
2023-04-26T09:52:08.178Z,6.10
2023-04-26T09:54:56.712Z,8.90
2023-04-26T09:57:45.518Z,3.97
2023-04-26T10:00:34.372Z,7.83
2023-04-26T10:03:24.052Z,6.50
2023-04-26T10:06:16.386Z,7.50
2023-04-26T10:09:09.112Z,7.57
2023-04-26T10:12:00.269Z,8.63
2023-04-26T10:14:49.652Z,4.73
2023-04-26T10:17:38.597Z,7.80
2023-04-26T10:20:29.690Z,7.20
2023-04-26T10:23:21.251Z,6.30
2023-04-26T10:26:47.079Z,7.80
2023-04-26T10:30:09.184Z,7.03
2023-04-26T10:33:22.144Z,4.93
2023-04-26T10:36:12.548Z,3.70
2023-04-26T10:39:21.778Z,4.10
2023-04-26T10:42:25.132Z,5.73
2023-04-26T10:45:28.193Z,4.00
2023-04-26T10:48:18.560Z,3.77
2023-04-26T10:51:12.298Z,5.43
2023-04-26T10:54:02.080Z,3.60
2023-04-26T10:56:52.902Z,4.90
2023-04-26T11:00:21.913Z,3.50
2023-04-26T11:03:12.820Z,8.53
2023-04-26T11:06:01.778Z,4.67
2023-04-26T11:08:50.556Z,4.13
2023-04-26T11:11:53.323Z,3.07
2023-04-26T11:14:43.848Z,5.03
2023-04-26T11:17:38.228Z,4.33
2023-04-26T11:20:31.386Z,6.77
2023-04-26T11:23:20.674Z,4.30
2023-04-26T11:26:09.796Z,5.10
2023-04-26T11:28:58.288Z,5.27
2023-04-26T11:31:54.047Z,5.80
2023-04-26T11:34:43.983Z,5.80
2023-04-26T11:37:32.584Z,3.63
2023-04-26T11:40:21.721Z,5.30
2023-04-26T11:43:10.814Z,5.73
2023-04-26T11:46:00.093Z,3.73
2023-04-26T11:48:50.040Z,9.03
2023-04-26T11:51:38.611Z,5.07
2023-04-26T11:54:31.487Z,4.90
2023-04-26T11:57:20.677Z,5.43
2023-04-26T12:00:12.459Z,5.20
2023-04-26T12:03:06.291Z,4.77
2023-04-26T12:05:57.035Z,5.63
2023-04-26T12:08:51.297Z,6.47
2023-04-26T12:11:40.190Z,3.87
2023-04-26T12:14:32.580Z,3.57
2023-04-26T12:17:21.471Z,5.03
2023-04-26T12:20:11.233Z,4.10
2023-04-26T12:23:02.829Z,3.43
2023-04-26T12:25:55.848Z,6.60
2023-04-26T12:28:44.824Z,7.60
2023-04-26T12:31:33.325Z,4.43
2023-04-26T12:34:21.885Z,6.80
2023-04-26T12:37:10.652Z,3.63
2023-04-26T12:40:00.958Z,11.60
2023-04-26T12:42:50.624Z,4.43
2023-04-26T12:45:39.161Z,8.00
2023-04-26T12:48:28.142Z,7.67
2023-04-26T12:51:16.576Z,7.13
2023-04-26T12:54:05.203Z,3.90
2023-04-26T12:56:55.037Z,7.37
2023-04-26T12:59:43.495Z,5.60
2023-04-26T13:02:36.904Z,4.20
2023-04-26T13:05:25.686Z,4.30
2023-04-26T13:08:14.545Z,5.50
2023-04-26T13:11:03.452Z,4.53
2023-04-26T13:13:53.261Z,5.30
2023-04-26T13:16:43.859Z,5.43
2023-04-26T13:19:32.438Z,3.90
2023-04-26T13:22:21.438Z,3.90
2023-04-26T13:25:10.920Z,4.33
2023-04-26T13:27:59.431Z,3.77
2023-04-26T13:30:49.275Z,6.07
2023-04-26T13:33:37.776Z,4.83
2023-04-26T13:36:26.302Z,7.77
2023-04-26T13:39:14.780Z,4.13
2023-04-26T13:42:03.813Z,8.33
2023-04-26T13:44:52.416Z,8.17
2023-04-26T13:47:42.365Z,5.13
2023-04-26T13:50:30.836Z,6.67
2023-04-26T13:53:19.761Z,7.27
2023-04-26T13:56:09.412Z,4.63
2023-04-26T13:58:57.976Z,9.67
2023-04-26T14:01:46.782Z,4.30
2023-04-26T14:04:36.936Z,4.93
2023-04-26T14:07:26.220Z,4.10
2023-04-26T14:10:15.302Z,5.10
2023-04-26T14:13:03.791Z,6.17
2023-04-26T14:15:52.443Z,5.20
2023-04-26T14:18:44.992Z,6.37
2023-04-26T14:21:34.904Z,4.70
2023-04-26T14:24:23.498Z,11.63
2023-04-26T14:27:12.301Z,5.83
2023-04-26T14:30:00.959Z,10.50
2023-04-26T14:32:49.508Z,7.27
2023-04-26T14:35:38.045Z,4.40
2023-04-26T14:38:28.100Z,6.63
2023-04-26T14:41:17.403Z,4.67
2023-04-26T14:44:06.251Z,5.13
2023-04-26T14:46:54.818Z,5.13
2023-04-26T14:49:43.250Z,7.00
2023-04-26T14:52:31.705Z,7.27
2023-04-26T14:55:22.868Z,6.90
2023-04-26T14:58:11.486Z,4.10
2023-04-26T15:01:00.553Z,6.90
2023-04-26T15:03:49.175Z,3.40
2023-04-26T15:06:37.834Z,7.17
2023-04-26T15:09:27.100Z,6.07
2023-04-26T15:12:18.284Z,4.30
2023-04-26T15:15:08.123Z,5.07
2023-04-26T15:17:56.973Z,5.47
2023-04-26T15:20:45.578Z,3.80
2023-04-26T15:23:34.067Z,5.07
2023-04-26T15:26:23.036Z,6.00
2023-04-26T15:29:13.078Z,3.40
2023-04-26T15:32:01.827Z,4.57
2023-04-26T15:34:50.377Z,3.60
2023-04-26T15:37:38.928Z,10.07
2023-04-26T15:40:27.658Z,5.17
2023-04-26T15:43:16.283Z,5.00
2023-04-26T15:46:06.256Z,3.97
2023-04-26T15:48:54.746Z,6.77
2023-04-26T15:51:43.665Z,6.97
2023-04-26T15:54:32.284Z,4.17
2023-04-26T15:57:20.770Z,5.23
2023-04-26T16:00:12.701Z,8.33
2023-04-26T16:03:03.035Z,4.30
2023-04-26T16:05:51.598Z,8.47
2023-04-26T16:08:40.894Z,3.83
2023-04-26T16:11:29.596Z,7.43
2023-04-26T16:14:18.077Z,4.30
2023-04-26T16:17:06.664Z,6.00
2023-04-26T16:19:56.509Z,5.13
2023-04-26T16:22:45.405Z,4.37
2023-04-26T16:25:33.959Z,3.67
2023-04-26T16:28:22.435Z,7.03
2023-04-26T16:31:11.123Z,5.73
2023-04-26T16:33:59.772Z,5.93
2023-04-26T16:36:49.643Z,4.57
2023-04-26T16:39:38.156Z,6.90
2023-04-26T16:42:26.942Z,6.83
2023-04-26T16:45:16.723Z,3.57
2023-04-26T16:48:05.555Z,4.50
2023-04-26T16:50:54.114Z,3.57
2023-04-26T16:53:43.945Z,5.73
2023-04-26T16:56:33.155Z,9.37
2023-04-26T16:59:21.776Z,5.47
2023-04-26T17:02:10.260Z,5.23
2023-04-26T17:04:58.917Z,5.27
2023-04-26T17:07:47.421Z,4.10
2023-04-26T17:10:37.972Z,4.83
2023-04-26T17:13:29.211Z,6.33
2023-04-26T17:16:17.909Z,3.53
2023-04-26T17:19:06.803Z,3.80
2023-04-26T17:21:55.335Z,3.67
2023-04-26T17:24:43.820Z,4.13
2023-04-26T17:27:33.649Z,4.13
2023-04-26T17:30:22.781Z,4.23
2023-04-26T17:33:11.333Z,5.40
2023-04-26T17:35:59.915Z,5.43
2023-04-26T17:38:49.068Z,3.37
2023-04-26T17:41:38.267Z,7.23
2023-04-26T17:44:28.133Z,3.83
2023-04-26T17:47:16.633Z,5.33
2023-04-26T17:50:05.812Z,6.73
2023-04-26T17:52:54.359Z,4.00
2023-04-26T17:55:42.995Z,4.23
2023-04-26T17:58:31.426Z,5.80
2023-04-26T18:01:21.524Z,3.30
2023-04-26T18:04:10.281Z,4.80
2023-04-26T18:06:58.892Z,5.60
2023-04-26T18:09:47.603Z,4.80
2023-04-26T18:12:36.685Z,3.97
2023-04-26T18:15:25.286Z,3.37
2023-04-26T18:18:15.242Z,5.00
2023-04-26T18:21:03.775Z,2.97
2023-04-26T18:23:52.277Z,3.33
2023-04-26T18:26:41.433Z,4.20
2023-04-26T18:29:30.344Z,3.43
2023-04-26T18:32:18.897Z,3.37
2023-04-26T18:35:09.673Z,3.40
2023-04-26T18:37:58.160Z,4.03
2023-04-26T18:40:46.989Z,4.60
2023-04-26T18:43:35.516Z,5.93
2023-04-26T18:46:23.982Z,7.30
2023-04-26T18:49:12.414Z,5.10
2023-04-26T18:52:02.312Z,6.23
2023-04-26T18:54:51.316Z,6.53
2023-04-26T18:57:40.120Z,7.23
2023-04-26T19:00:28.606Z,7.90
2023-04-26T19:03:17.422Z,5.83
2023-04-26T19:06:08.957Z,6.93
2023-04-26T19:08:58.813Z,3.97
2023-04-26T19:11:50.165Z,6.00
2023-04-26T19:14:38.683Z,7.83
2023-04-26T19:17:29.303Z,4.80
2023-04-26T19:20:17.940Z,10.93
2023-04-26T19:23:06.447Z,5.37
2023-04-26T19:26:02.681Z,9.10
2023-04-26T19:28:51.244Z,7.33
2023-04-26T19:31:39.804Z,7.07
2023-04-26T19:34:28.440Z,4.80
2023-04-26T19:37:17.019Z,13.63
2023-04-26T19:40:07.406Z,6.07
2023-04-26T19:42:57.358Z,6.33
2023-04-26T19:45:46.276Z,5.50
2023-04-26T19:48:34.837Z,5.03
2023-04-26T19:51:23.422Z,6.43
2023-04-26T19:54:11.941Z,5.97
2023-04-26T19:57:01.464Z,5.07
2023-04-26T19:59:51.325Z,4.63
2023-04-26T20:02:39.924Z,4.40
2023-04-26T20:05:28.573Z,5.23
2023-04-26T20:08:17.146Z,7.00
2023-04-26T20:11:05.789Z,5.57
2023-04-26T20:13:54.324Z,5.57
2023-04-26T20:16:44.277Z,7.93
2023-04-26T20:19:32.826Z,9.20
2023-04-26T20:22:21.405Z,9.80
2023-04-26T20:25:10.418Z,7.40
2023-04-26T20:27:58.944Z,9.17
2023-04-26T20:30:47.600Z,4.97
2023-04-26T20:33:37.884Z,5.47
2023-04-26T20:36:27.337Z,6.60
2023-04-26T20:39:16.619Z,5.60
2023-04-26T20:42:05.842Z,8.50
2023-04-26T20:44:54.600Z,8.30
2023-04-26T20:47:43.342Z,7.30
2023-04-26T20:50:35.342Z,6.43
2023-04-26T20:53:24.990Z,14.53
2023-04-26T20:56:13.525Z,24.23
2023-04-26T20:59:01.998Z,28.80
2023-04-26T21:01:50.570Z,32.73
2023-04-26T21:04:41.784Z,23.53
2023-04-26T21:07:32.249Z,21.60
2023-04-26T21:10:21.849Z,8.77
2023-04-26T21:13:10.354Z,9.10
2023-04-26T21:16:04.654Z,6.93
2023-04-26T21:18:53.541Z,9.03
2023-04-26T21:21:41.967Z,7.07
2023-04-26T21:24:31.783Z,7.47
2023-04-26T21:27:20.387Z,9.93
2023-04-26T21:30:10.016Z,8.43
2023-04-26T21:32:58.551Z,8.37
2023-04-26T21:35:47.078Z,9.30
2023-04-26T21:38:35.687Z,7.30
2023-04-26T21:41:25.881Z,10.97
2023-04-26T21:44:14.384Z,8.30
2023-04-26T21:47:02.918Z,7.27
2023-04-26T21:49:52.159Z,8.03
2023-04-26T21:52:40.689Z,7.43
2023-04-26T21:55:29.168Z,7.97
2023-04-26T21:58:18.977Z,7.90
2023-04-26T22:01:09.165Z,8.17
2023-04-26T22:03:57.836Z,7.97
2023-04-26T22:06:46.335Z,10.63
2023-04-26T22:09:34.850Z,7.63
2023-04-26T22:12:23.344Z,7.43
2023-04-26T22:15:13.461Z,10.43
2023-04-26T22:18:01.961Z,8.20
2023-04-26T22:20:50.510Z,9.97
2023-04-26T22:23:39.100Z,9.83
2023-04-26T22:26:27.625Z,7.60
2023-04-26T22:29:16.270Z,8.43
2023-04-26T22:32:06.528Z,7.23
2023-04-26T22:34:55.075Z,10.23
2023-04-26T22:37:43.502Z,8.43
2023-04-26T22:40:32.258Z,9.60
2023-04-26T22:43:20.829Z,9.97
2023-04-26T22:46:09.360Z,8.87
2023-04-26T22:48:59.545Z,8.40
2023-04-26T22:52:01.137Z,8.80
2023-04-26T22:54:50.869Z,9.23
2023-04-26T22:57:39.582Z,8.20
2023-04-26T23:00:28.030Z,7.80
2023-04-26T23:03:16.571Z,7.47
2023-04-26T23:06:07.058Z,7.13
2023-04-26T23:08:55.509Z,7.73
2023-04-26T23:11:43.942Z,7.40
2023-04-26T23:14:33.697Z,8.77
2023-04-26T23:17:22.464Z,6.87
2023-04-26T23:20:14.821Z,7.60
2023-04-26T23:23:04.659Z,7.60
2023-04-26T23:25:53.155Z,7.37
2023-04-26T23:28:41.647Z,9.40
2023-04-26T23:31:30.113Z,7.33
2023-04-26T23:34:18.642Z,8.40
2023-04-26T23:37:08.225Z,7.13
2023-04-26T23:39:58.238Z,8.67
2023-04-26T23:42:46.747Z,7.60
2023-04-26T23:45:35.253Z,7.10
2023-04-26T23:48:23.766Z,7.20
2023-04-26T23:51:12.300Z,8.10
2023-04-26T23:54:00.728Z,9.60
2023-04-26T23:56:50.656Z,6.87
2023-04-26T23:59:39.085Z,7.13
